Time;durP1;ratioP1;P1;durP2;ratioP2;P2;SDS_P1;SDS_P2;PMS_P1;PMS_P2;Temp;Humidity;BMP_temperature;BMP_pressure;BME280_temperature;BME280_humidity;BME280_pressure;Samples;Min_cycle;Max_cycle;Signal;HPM_P1;HPM_P2
2023/11/04 00:01:13;;;;;;;;;;;6.60;99.90;;;5.90;100.00;95506.69;4986046;28;1527;-75
2023/11/04 00:03:49;;;;;;;;;;;6.60;99.90;;;5.84;100.00;95501.00;4984927;28;1546;-75
2023/11/04 00:06:17;;;;;;;;;;;6.60;99.90;;;5.90;100.00;95506.69;4991277;28;1454;-74
2023/11/04 00:08:45;;;;;;;;;;;6.50;99.90;;;5.86;100.00;95501.75;4973218;28;1616;-75
2023/11/04 00:11:12;;;;;;;;;;;6.50;99.90;;;5.95;100.00;95504.72;4982267;28;1552;-75
2023/11/04 00:13:39;;;;;;;;;;;6.50;99.90;;;5.93;100.00;95509.09;4983953;28;1616;-75
2023/11/04 00:16:09;;;;;;;;;;;6.50;99.90;;;5.92;100.00;95500.53;4984432;28;1934;-75
2023/11/04 00:18:37;;;;;;;;;;;6.50;99.90;;;5.94;100.00;95498.75;4984105;28;1697;-75
2023/11/04 00:21:07;;;;;;;;;;;6.50;99.90;;;5.99;100.00;95501.06;4983717;28;1659;-75
2023/11/04 00:23:34;;;;;;;;;;;6.60;99.90;;;5.98;100.00;95502.81;4980493;28;1787;-74
2023/11/04 00:26:02;;;;;;;;;;;6.60;99.90;;;6.05;100.00;95498.97;4986419;28;1845;-74
2023/11/04 00:28:31;;;;;;;;;;;6.60;99.90;;;6.06;100.00;95492.88;4984257;28;1792;-73
2023/11/04 00:30:58;;;;;;;;;;;6.60;99.90;;;6.01;100.00;95494.06;4987469;28;1812;-75
2023/11/04 00:33:25;;;;;;;;;;;6.70;99.90;;;6.02;100.00;95491.41;4981465;28;1825;-75
2023/11/04 00:35:55;;;;;;;;;;;6.60;99.90;;;6.05;100.00;95491.22;4982753;28;1651;-74
2023/11/04 00:38:22;;;;;;;;;;;6.70;99.90;;;6.04;100.00;95487.00;4982130;28;2134;-75
2023/11/04 00:40:49;;;;;;;;;;;6.70;99.90;;;6.07;100.00;95491.97;4984669;28;1558;-74
2023/11/04 00:43:16;;;;;;;;;;;6.70;99.90;;;6.08;100.00;95495.38;4984351;28;1582;-75
2023/11/04 00:45:43;;;;;;;;;;;6.80;99.90;;;6.18;100.00;95493.94;4983567;28;1823;-75
2023/11/04 00:48:10;;;;;;;;;;;6.80;99.90;;;6.07;100.00;95486.81;4983277;28;1606;-75
2023/11/04 00:50:37;;;;;;;;;;;6.80;99.90;;;6.17;100.00;95483.72;4984685;28;1655;-75
2023/11/04 00:53:04;;;;;;;;;;;6.80;99.90;;;6.13;100.00;95489.94;4981199;28;1588;-74
2023/11/04 00:55:31;;;;;;;;;;;6.90;99.90;;;6.11;100.00;95484.88;4985043;28;1679;-75
2023/11/04 00:57:59;;;;;;;;;;;6.80;99.90;;;6.09;100.00;95486.75;4985945;28;1899;-75
2023/11/04 01:00:26;;;;;;;;;;;6.80;99.90;;;6.22;100.00;95491.97;4982431;28;1893;-75
2023/11/04 01:02:56;;;;;;;;;;;6.80;99.90;;;6.27;100.00;95482.22;4982720;28;1543;-76
2023/11/04 01:05:24;;;;;;;;;;;6.80;99.90;;;6.18;100.00;95475.03;4982297;28;1511;-75
2023/11/04 01:07:52;;;;;;;;;;;6.90;99.90;;;6.22;100.00;95479.09;4981978;28;1798;-75
2023/11/04 01:10:19;;;;;;;;;;;6.90;99.90;;;6.27;100.00;95479.66;4981896;28;1352;-76
2023/11/04 01:12:48;;;;;;;;;;;6.90;99.90;;;6.26;100.00;95480.59;4984104;28;1517;-75
2023/11/04 01:15:15;;;;;;;;;;;7.00;99.90;;;6.38;100.00;95487.59;4999387;28;1869;-75
2023/11/04 01:17:43;;;;;;;;;;;6.90;99.90;;;6.35;100.00;95476.66;4990426;28;1891;-75
2023/11/04 01:20:10;;;;;;;;;;;6.90;99.90;;;6.25;100.00;95471.22;4983944;28;1433;-75
2023/11/04 01:22:37;;;;;;;;;;;6.90;99.90;;;6.27;100.00;95470.19;4981852;28;1593;-75
2023/11/04 01:25:05;;;;;;;;;;;6.90;99.90;;;6.38;100.00;95484.19;4983682;28;1775;-75
2023/11/04 01:27:32;;;;;;;;;;;6.90;99.90;;;6.47;100.00;95481.06;4986192;28;1556;-74
2023/11/04 01:30:00;;;;;;;;;;;6.90;99.90;;;6.34;100.00;95478.41;4990271;28;1438;-75
2023/11/04 01:32:27;;;;;;;;;;;6.90;99.90;;;6.22;100.00;95472.19;4985031;28;1596;-75
2023/11/04 01:34:54;;;;;;;;;;;7.00;99.90;;;6.35;100.00;95474.88;4983239;28;1690;-75
2023/11/04 01:37:25;;;;;;;;;;;7.00;99.90;;;6.30;100.00;95460.63;4988435;28;1890;-73
2023/11/04 01:39:52;;;;;;;;;;;7.10;99.90;;;6.31;100.00;95457.13;4972913;28;1554;-75
2023/11/04 01:42:19;;;;;;;;;;;7.00;99.90;;;6.25;100.00;95464.31;4985828;28;1540;-75
2023/11/04 01:44:46;;;;;;;;;;;7.00;99.90;;;6.31;100.00;95465.69;4971954;28;1558;-75
2023/11/04 01:47:14;;;;;;;;;;;7.00;99.90;;;6.27;100.00;95456.47;4986396;28;1375;-75
2023/11/04 01:49:41;;;;;;;;;;;7.00;99.90;;;6.27;100.00;95462.47;4970491;28;1568;-75
2023/11/04 01:52:08;;;;;;;;;;;7.00;99.90;;;6.28;100.00;95453.81;4986169;28;1829;-75
2023/11/04 01:54:37;;;;;;;;;;;7.00;99.90;;;6.28;100.00;95461.53;4988725;28;1651;-75
2023/11/04 01:57:07;;;;;;;;;;;7.00;99.90;;;6.33;100.00;95468.19;4985472;28;1998;-74
2023/11/04 01:59:38;;;;;;;;;;;7.00;99.90;;;6.35;100.00;95458.59;4986213;28;1501;-75
2023/11/04 02:02:08;;;;;;;;;;;7.00;99.90;;;6.32;100.00;95457.03;4983431;28;1610;-74
2023/11/04 02:04:35;;;;;;;;;;;7.00;99.90;;;6.30;100.00;95461.47;4989395;28;1684;-76
2023/11/04 02:07:03;;;;;;;;;;;7.00;99.90;;;6.34;100.00;95454.34;4987097;28;1572;-74
2023/11/04 02:09:30;;;;;;;;;;;7.00;99.90;;;6.26;100.00;95455.66;4988522;28;1505;-74
2023/11/04 02:11:57;;;;;;;;;;;7.00;99.90;;;6.31;100.00;95457.13;4973610;28;1540;-75
2023/11/04 02:14:24;;;;;;;;;;;7.10;99.90;;;6.40;100.00;95464.31;4988680;28;1696;-75
2023/11/04 02:16:52;;;;;;;;;;;7.00;99.90;;;6.38;100.00;95445.53;4989424;28;1981;-75
2023/11/04 02:19:19;;;;;;;;;;;7.10;99.90;;;6.40;100.00;95438.53;4988896;28;1443;-75
2023/11/04 02:21:47;;;;;;;;;;;7.10;99.90;;;6.34;100.00;95444.06;4987860;28;1783;-75
2023/11/04 02:24:13;;;;;;;;;;;7.10;99.90;;;6.34;100.00;95444.06;4984515;28;1872;-75
2023/11/04 02:26:41;;;;;;;;;;;7.10;99.90;;;6.35;100.00;95438.81;4992522;28;1489;-75
2023/11/04 02:29:08;;;;;;;;;;;7.10;99.90;;;6.40;100.00;95431.63;4972438;28;1590;-75
2023/11/04 02:31:35;;;;;;;;;;;7.10;99.90;;;6.47;100.00;95448.38;4988867;28;1522;-75
2023/11/04 02:34:02;;;;;;;;;;;7.00;99.90;;;6.30;100.00;95429.72;4987763;28;1579;-75
2023/11/04 02:36:29;;;;;;;;;;;7.10;99.90;;;6.40;100.00;95441.13;4990026;28;1598;-75
2023/11/04 02:38:57;;;;;;;;;;;7.00;99.90;;;6.37;100.00;95433.59;4987120;28;1354;-75
2023/11/04 02:41:24;;;;;;;;;;;7.00;99.90;;;6.41;100.00;95424.72;4987412;28;1541;-74
2023/11/04 02:43:51;;;;;;;;;;;7.10;99.90;;;6.41;100.00;95422.16;4986382;28;1447;-75
2023/11/04 02:46:18;;;;;;;;;;;7.00;99.90;;;6.34;100.00;95416.56;4988230;28;1573;-76
2023/11/04 02:48:45;;;;;;;;;;;7.10;99.90;;;6.36;100.00;95406.16;4972500;28;1595;-75
2023/11/04 02:51:12;;;;;;;;;;;7.10;99.90;;;6.35;100.00;95409.66;4987630;28;1553;-75
2023/11/04 02:53:39;;;;;;;;;;;7.00;99.90;;;6.34;100.00;95413.97;4986731;28;1592;-75
2023/11/04 02:56:06;;;;;;;;;;;7.10;99.90;;;6.34;100.00;95416.56;4976673;28;1493;-74
2023/11/04 02:58:33;;;;;;;;;;;7.00;99.90;;;6.33;100.00;95417.47;4986277;28;1915;-74
2023/11/04 03:01:01;;;;;;;;;;;7.00;99.90;;;6.39;100.00;95411.94;4987094;28;1581;-75
2023/11/04 03:03:28;;;;;;;;;;;7.00;99.90;;;6.31;100.00;95408.19;4986196;28;1540;-75
2023/11/04 03:05:55;;;;;;;;;;;7.10;99.90;;;6.42;100.00;95414.34;4994520;28;1623;-74
2023/11/04 03:08:24;;;;;;;;;;;7.10;99.90;;;6.30;100.00;95417.66;4973123;28;1585;-74
2023/11/04 03:10:51;;;;;;;;;;;7.10;99.90;;;6.33;100.00;95408.91;4985890;28;1631;-75
2023/11/04 03:13:19;;;;;;;;;;;7.10;99.90;;;6.33;100.00;95408.91;4987613;28;1525;-74
2023/11/04 03:15:46;;;;;;;;;;;7.10;99.90;;;6.41;100.00;95404.97;4973202;28;1511;-75
2023/11/04 03:18:14;;;;;;;;;;;7.00;99.90;;;6.33;100.00;95402.00;4986551;28;1981;-75
2023/11/04 03:20:41;;;;;;;;;;;7.00;99.90;;;6.33;100.00;95404.59;4983942;28;1552;-75
2023/11/04 03:23:08;;;;;;;;;;;7.10;99.90;;;6.36;100.00;95395.84;4986167;28;1583;-76
2023/11/04 03:25:35;;;;;;;;;;;7.10;99.90;;;6.38;100.00;95391.41;4986517;28;1667;-75
2023/11/04 03:28:02;;;;;;;;;;;7.10;99.90;;;6.35;100.00;95379.56;4987601;28;1588;-73
2023/11/04 03:30:31;;;;;;;;;;;7.10;99.90;;;6.35;100.00;95386.47;4986287;28;1564;-75
2023/11/04 03:32:58;;;;;;;;;;;7.10;99.90;;;6.36;100.00;95380.38;4983999;28;1486;-75
2023/11/04 03:35:25;;;;;;;;;;;7.00;99.90;;;6.32;100.00;95382.31;4988472;28;1574;-74
2023/11/04 03:37:52;;;;;;;;;;;7.00;99.90;;;6.27;100.00;95381.75;4991905;28;1906;-74
2023/11/04 03:40:19;;;;;;;;;;;7.00;99.90;;;6.27;100.00;95392.06;4984659;28;1568;-75
2023/11/04 03:42:46;;;;;;;;;;;7.00;99.90;;;6.28;100.00;95389.41;4970122;28;1550;-75
2023/11/04 03:45:13;;;;;;;;;;;7.00;99.90;;;6.36;100.00;95382.94;4983556;28;1668;-75
2023/11/04 03:47:40;;;;;;;;;;;7.10;99.90;;;6.34;100.00;95393.38;4983729;28;1574;-75
2023/11/04 03:50:07;;;;;;;;;;;7.10;99.90;;;6.26;100.00;95386.09;4970598;28;1562;-73
2023/11/04 03:52:34;;;;;;;;;;;7.00;99.90;;;6.20;100.00;95378.75;4983889;28;1730;-75
2023/11/04 03:55:01;;;;;;;;;;;7.00;99.90;;;6.18;100.00;95370.28;4998029;28;1508;-75
2023/11/04 03:57:28;;;;;;;;;;;7.00;99.90;;;6.25;100.00;95369.00;4987044;28;1985;-75
2023/11/04 03:59:55;;;;;;;;;;;7.00;99.90;;;6.27;100.00;95371.44;4982606;28;1774;-74
2023/11/04 04:02:22;;;;;;;;;;;7.00;99.90;;;6.23;100.00;95362.28;4983846;28;1747;-75
2023/11/04 04:04:50;;;;;;;;;;;7.00;99.90;;;6.26;100.00;95360.31;4983344;28;1595;-75
2023/11/04 04:07:17;;;;;;;;;;;7.00;99.90;;;6.20;100.00;95357.28;4969556;28;1565;-74
2023/11/04 04:09:43;;;;;;;;;;;7.00;99.90;;;6.15;100.00;95343.88;4982191;28;1588;-75
2023/11/04 04:12:10;;;;;;;;;;;6.90;99.90;;;6.24;100.00;95346.72;4984446;28;1491;-75
2023/11/04 04:14:40;;;;;;;;;;;7.00;99.90;;;6.21;100.00;95352.06;4982277;28;1527;-75
2023/11/04 04:17:07;;;;;;;;;;;7.00;99.90;;;6.18;100.00;95354.84;4983111;28;1903;-75
2023/11/04 04:19:37;;;;;;;;;;;7.00;99.90;;;6.18;100.00;95344.53;4983257;28;1605;-75
2023/11/04 04:22:04;;;;;;;;;;;7.00;99.90;;;6.32;100.00;95350.56;4981854;28;1551;-74
2023/11/04 04:24:31;;;;;;;;;;;7.00;99.90;;;6.26;100.00;95347.44;4981376;28;1772;-75
2023/11/04 04:26:58;;;;;;;;;;;7.00;99.90;;;6.19;100.00;95343.59;4980017;28;1654;-74
2023/11/04 04:29:27;;;;;;;;;;;7.00;99.90;;;6.10;100.00;95344.16;4987400;28;1641;-75
2023/11/04 04:31:54;;;;;;;;;;;7.00;99.90;;;6.09;100.00;95347.66;4986330;28;1588;-75
2023/11/04 04:34:22;;;;;;;;;;;6.90;99.90;;;5.99;100.00;95342.22;4970132;28;1447;-75
2023/11/04 04:36:49;;;;;;;;;;;6.90;99.90;;;6.03;100.00;95348.03;4986620;28;1712;-75
2023/11/04 04:39:18;;;;;;;;;;;6.80;99.90;;;5.95;100.00;95339.91;4986890;28;2121;-75
2023/11/04 04:41:45;;;;;;;;;;;6.80;99.90;;;5.93;100.00;95339.16;4991442;28;1449;-75
2023/11/04 04:44:12;;;;;;;;;;;6.70;99.90;;;5.98;100.00;95342.31;4985285;28;1530;-75
2023/11/04 04:46:39;;;;;;;;;;;6.80;99.90;;;6.02;100.00;95338.63;4945902;28;1148762;-75
2023/11/04 04:49:07;;;;;;;;;;;6.80;99.90;;;5.90;100.00;95331.63;4985276;28;1597;-75
2023/11/04 04:51:34;;;;;;;;;;;6.70;99.90;;;5.89;100.00;95348.81;4985315;28;1592;-76
2023/11/04 04:54:03;;;;;;;;;;;6.70;99.90;;;5.95;100.00;95338.16;4998158;28;1530;-73
2023/11/04 04:56:30;;;;;;;;;;;6.70;99.90;;;5.95;100.00;95325.28;4984166;28;1553;-75
2023/11/04 04:58:57;;;;;;;;;;;6.70;99.90;;;5.87;100.00;95333.47;4985272;28;1906;-75
2023/11/04 05:01:24;;;;;;;;;;;6.70;99.90;;;5.93;100.00;95331.41;4986238;28;1561;-75
2023/11/04 05:03:53;;;;;;;;;;;6.70;99.90;;;5.90;100.00;95321.31;4982700;28;1520;-76
2023/11/04 05:06:20;;;;;;;;;;;6.70;99.90;;;5.89;100.00;95319.69;4980612;28;1509;-75
2023/11/04 05:08:47;;;;;;;;;;;6.60;99.90;;;5.80;100.00;95315.91;4984427;28;1552;-76
2023/11/04 05:11:14;;;;;;;;;;;6.60;99.90;;;5.74;100.00;95316.25;4984676;28;1600;-75
2023/11/04 05:13:42;;;;;;;;;;;6.60;99.90;;;5.81;100.00;95320.94;4982268;28;1576;-76
2023/11/04 05:16:09;;;;;;;;;;;6.60;99.90;;;5.79;100.00;95325.38;4982470;28;1535;-76
2023/11/04 05:18:36;;;;;;;;;;;6.60;99.90;;;5.79;100.00;95317.66;4982619;28;1984;-74
2023/11/04 05:21:04;;;;;;;;;;;6.50;99.90;;;5.84;100.00;95313.06;4965068;28;1553;-76
2023/11/04 05:23:31;;;;;;;;;;;6.50;99.90;;;5.78;100.00;95310.00;4985292;28;1549;-75
2023/11/04 05:25:58;;;;;;;;;;;6.50;99.90;;;5.81;100.00;95320.94;4970466;28;1710;-76
2023/11/04 05:28:26;;;;;;;;;;;6.60;99.90;;;5.84;100.00;95302.75;4985541;28;1517;-76
2023/11/04 05:30:53;;;;;;;;;;;6.60;99.90;;;5.81;100.00;95307.25;4983873;28;1744;-76
2023/11/04 05:33:21;;;;;;;;;;;6.60;99.90;;;5.85;100.00;95304.41;4985278;28;1553;-75
2023/11/04 05:35:49;;;;;;;;;;;6.60;99.90;;;5.95;100.00;95298.72;4985200;28;1549;-73
2023/11/04 05:38:17;;;;;;;;;;;6.70;99.90;;;5.86;100.00;95293.19;4980474;28;1902;-75
2023/11/04 05:40:44;;;;;;;;;;;6.60;99.90;;;5.94;100.00;95295.31;4985588;28;1557;-75
2023/11/04 05:43:12;;;;;;;;;;;6.60;99.90;;;5.87;100.00;95274.25;4980129;28;1631;-75
2023/11/04 05:45:39;;;;;;;;;;;6.60;99.90;;;5.97;100.00;95274.53;4987342;28;1658;-76
2023/11/04 05:48:08;;;;;;;;;;;6.70;99.90;;;5.92;100.00;95262.84;4983067;28;1938;-75
2023/11/04 05:50:35;;;;;;;;;;;6.70;99.90;;;6.01;100.00;95259.72;4968727;28;1640;-75
2023/11/04 05:53:03;;;;;;;;;;;6.80;99.90;;;6.02;100.00;95249.34;4982965;28;1595;-75
2023/11/04 05:55:30;;;;;;;;;;;6.70;99.90;;;6.08;100.00;95248.94;4980440;28;1560;-75
2023/11/04 05:57:58;;;;;;;;;;;6.70;99.90;;;5.98;100.00;95245.31;4981287;28;1906;-75
2023/11/04 06:00:25;;;;;;;;;;;6.70;99.90;;;6.04;100.00;95238.94;4982541;28;1802;-76
2023/11/04 06:02:53;;;;;;;;;;;6.70;99.90;;;6.07;100.00;95233.59;4984527;28;1686;-76
2023/11/04 06:05:20;;;;;;;;;;;6.80;99.90;;;6.11;100.00;95231.66;4983467;28;1705;-75
2023/11/04 06:07:48;;;;;;;;;;;6.70;99.90;;;6.01;100.00;95229.66;4982085;28;1521;-75
2023/11/04 06:10:15;;;;;;;;;;;6.80;99.90;;;6.06;100.00;95229.38;4986059;28;1651;-76
2023/11/04 06:12:43;;;;;;;;;;;6.80;99.90;;;6.12;100.00;95217.88;4981459;28;1552;-76
2023/11/04 06:15:10;;;;;;;;;;;6.80;99.90;;;6.07;100.00;95231.84;4985717;28;1581;-75
2023/11/04 06:17:38;;;;;;;;;;;6.80;99.90;;;6.12;100.00;95230.75;4970812;28;1938;-75
2023/11/04 06:20:06;;;;;;;;;;;6.80;99.90;;;6.08;100.00;95228.34;4981455;28;1631;-75
2023/11/04 06:22:33;;;;;;;;;;;6.80;99.90;;;6.18;100.00;95236.34;4973712;28;1535;-75
2023/11/04 06:25:00;;;;;;;;;;;6.80;99.90;;;6.14;100.00;95222.00;4986016;28;1500;-75
2023/11/04 06:27:27;;;;;;;;;;;6.80;99.90;;;6.21;100.00;95225.00;4986331;28;1772;-75
2023/11/04 06:29:53;;;;;;;;;;;6.90;99.90;;;6.20;100.00;95219.03;5006390;28;1508;-74
2023/11/04 06:32:20;;;;;;;;;;;6.90;99.90;;;6.23;100.00;95210.28;4989578;28;1505;-75
2023/11/04 06:34:47;;;;;;;;;;;6.90;99.90;;;6.25;100.00;95198.97;4985416;28;1562;-75
2023/11/04 06:37:14;;;;;;;;;;;6.90;99.90;;;6.23;100.00;95202.56;4972582;28;1505;-75
2023/11/04 06:39:42;;;;;;;;;;;6.90;99.90;;;6.29;100.00;95194.44;4985039;28;1902;-75
2023/11/04 06:42:12;;;;;;;;;;;7.00;99.90;;;6.30;100.00;95185.78;4987395;28;1593;-75
2023/11/04 06:44:38;;;;;;;;;;;7.00;99.90;;;6.30;100.00;95179.81;4985863;28;1580;-75
2023/11/04 06:47:08;;;;;;;;;;;7.00;99.90;;;6.28;100.00;95170.41;4986575;28;1644;-74
2023/11/04 06:49:35;;;;;;;;;;;7.00;99.90;;;6.34;100.00;95171.78;4971637;28;1607;-74
2023/11/04 06:52:03;;;;;;;;;;;7.00;99.90;;;6.41;100.00;95178.19;4986683;28;1556;-75
2023/11/04 06:54:30;;;;;;;;;;;7.00;99.90;;;6.43;100.00;95163.47;4974491;28;1560;-74
2023/11/04 06:56:57;;;;;;;;;;;7.00;99.90;;;6.52;100.00;95169.75;4985049;28;1600;-75
2023/11/04 06:59:24;;;;;;;;;;;7.00;99.90;;;6.41;100.00;95159.31;4985303;28;1915;-74
2023/11/04 07:01:52;;;;;;;;;;;7.00;99.90;;;6.57;100.00;95165.16;4971261;28;1558;-75
2023/11/04 07:04:19;;;;;;;;;;;7.10;99.90;;;6.52;100.00;95150.91;4990190;28;1585;-75
2023/11/04 07:06:51;;;;;;;;;;;7.20;99.90;;;6.46;100.00;95147.81;4985908;28;1630;-74
2023/11/04 07:09:18;;;;;;;;;;;7.20;99.90;;;6.53;100.00;95142.25;4987618;28;1539;-75
2023/11/04 07:11:45;;;;;;;;;;;7.20;99.90;;;6.57;100.00;95121.34;4984690;28;1512;-74
2023/11/04 07:14:13;;;;;;;;;;;7.20;99.90;;;6.58;100.00;95122.97;4983547;28;1631;-75
2023/11/04 07:16:40;;;;;;;;;;;7.30;99.90;;;6.66;100.00;95125.88;4983229;28;1497;-75
2023/11/04 07:19:07;;;;;;;;;;;7.30;99.90;;;6.64;100.00;95107.09;4984127;28;1914;-75
2023/11/04 07:21:37;;;;;;;;;;;7.40;99.90;;;6.71;100.00;95110.09;4985429;28;1596;-75
2023/11/04 07:24:05;;;;;;;;;;;7.40;99.90;;;6.86;100.00;95101.31;4988054;28;1481;-75
2023/11/04 07:26:32;;;;;;;;;;;7.50;99.90;;;6.83;100.00;95098.97;4984185;28;1606;-75
2023/11/04 07:29:00;;;;;;;;;;;7.50;99.90;;;6.90;100.00;95096.78;4986220;28;1592;-73
2023/11/04 07:31:27;;;;;;;;;;;7.50;99.90;;;6.95;100.00;95102.44;4986102;28;1427;-75
2023/11/04 07:33:54;;;;;;;;;;;7.60;99.90;;;7.02;100.00;95095.94;4985829;28;1513;-75
2023/11/04 07:36:25;;;;;;;;;;;7.60;99.90;;;6.94;100.00;95094.84;4989237;28;1584;-74
2023/11/04 07:38:52;;;;;;;;;;;7.70;99.90;;;7.03;100.00;95094.22;4971518;28;1907;-74
2023/11/04 07:41:20;;;;;;;;;;;7.70;99.90;;;7.10;100.00;95096.25;4963784;28;1676;-75
2023/11/04 07:43:48;;;;;;;;;;;7.70;99.90;;;6.96;100.00;95098.97;4987872;28;1616;-75
2023/11/04 07:46:15;;;;;;;;;;;7.70;99.90;;;6.99;100.00;95090.19;4983738;28;1587;-75
2023/11/04 07:48:42;;;;;;;;;;;7.70;99.90;;;7.21;100.00;95092.13;4967744;28;1715;-74
2023/11/04 07:51:10;;;;;;;;;;;7.70;99.90;;;7.17;100.00;95085.53;4983572;28;1612;-75
2023/11/04 07:53:37;;;;;;;;;;;7.80;99.90;;;7.26;100.00;95080.56;4972039;28;1607;-75
2023/11/04 07:56:05;;;;;;;;;;;7.80;99.90;;;7.14;100.00;95084.00;4987593;28;1695;-75
2023/11/04 07:58:32;;;;;;;;;;;7.90;99.90;;;7.23;100.00;95072.19;4984961;28;1914;-73
2023/11/04 08:00:59;;;;;;;;;;;7.80;99.90;;;7.29;100.00;95059.69;4982178;28;1596;-73
2023/11/04 08:03:27;;;;;;;;;;;7.80;99.90;;;7.40;100.00;95052.97;4986244;28;1689;-74
2023/11/04 08:05:56;;;;;;;;;;;7.90;99.90;;;7.44;100.00;95054.41;4985158;28;1751;-74
2023/11/04 08:08:23;;;;;;;;;;;8.00;99.90;;;7.57;100.00;95055.16;4986246;28;1497;-75
2023/11/04 08:10:50;;;;;;;;;;;8.10;99.90;;;7.61;100.00;95055.78;4985879;28;1504;-75
2023/11/04 08:13:19;;;;;;;;;;;8.10;99.90;;;7.52;100.00;95046.91;4981947;28;1335;-74
2023/11/04 08:15:45;;;;;;;;;;;8.20;99.90;;;7.42;100.00;95039.00;4983989;28;1447;-75
2023/11/04 08:18:13;;;;;;;;;;;8.10;99.90;;;7.31;100.00;95023.47;4996197;28;1993;-74
2023/11/04 08:20:42;;;;;;;;;;;8.10;99.90;;;7.41;100.00;95039.13;4983241;28;1438;-74
2023/11/04 08:23:09;;;;;;;;;;;8.10;99.90;;;7.44;100.00;95028.59;4985450;28;1383;-75
2023/11/04 08:25:36;;;;;;;;;;;8.10;99.90;;;7.49;100.00;95036.81;4983537;28;1011;-75
2023/11/04 08:28:03;;;;;;;;;;;8.20;99.90;;;7.48;100.00;95030.00;4983257;28;1986;-75
2023/11/04 08:30:30;;;;;;;;;;;8.20;99.90;;;7.46;100.00;95024.97;4966844;28;1397;-75
2023/11/04 08:32:57;;;;;;;;;;;8.20;99.90;;;7.41;100.00;95028.78;4981588;28;1445;-73
2023/11/04 08:35:24;;;;;;;;;;;8.10;99.90;;;7.49;100.00;95021.34;4964327;28;1729;-75
2023/11/04 08:37:57;;;;;;;;;;;8.20;99.90;;;7.42;100.00;95002.06;4983761;28;1678;-73
2023/11/04 08:40:24;;;;;;;;;;;8.20;99.90;;;7.54;100.00;95006.34;4984226;28;1985;-75
2023/11/04 08:42:52;;;;;;;;;;;8.20;99.90;;;7.66;100.00;95007.22;4987035;28;1638;-74
2023/11/04 08:45:20;;;;;;;;;;;8.30;99.90;;;7.84;100.00;94992.16;4981441;28;1587;-75
2023/11/04 08:47:47;;;;;;;;;;;8.40;99.90;;;8.18;100.00;94980.16;4980761;28;1671;-75
2023/11/04 08:50:14;;;;;;;;;;;8.50;99.90;;;8.20;100.00;94970.53;4982786;28;1474;-75
2023/11/04 08:52:42;;;;;;;;;;;8.60;99.90;;;8.25;100.00;94972.75;4982568;28;2002;-74
2023/11/04 08:55:10;;;;;;;;;;;8.70;99.90;;;8.42;100.00;94956.03;5000956;28;1295;-75
2023/11/04 08:57:37;;;;;;;;;;;8.90;99.90;;;8.38;100.00;94945.06;4985564;28;1654;-75
2023/11/04 09:00:07;;;;;;;;;;;9.00;99.90;;;8.33;100.00;94950.56;4982757;28;1915;-75
2023/11/04 09:02:34;;;;;;;;;;;8.90;99.90;;;8.59;100.00;94946.03;4979627;28;1341;-75
2023/11/04 09:05:01;;;;;;;;;;;9.00;99.90;;;8.67;100.00;94936.88;4981621;28;1513;-75
2023/11/04 09:07:34;;;;;;;;;;;9.10;99.90;;;8.66;100.00;94925.69;4982708;28;1536;-75
2023/11/04 09:10:02;;;;;;;;;;;9.20;99.90;;;8.57;100.00;94906.53;4983975;28;1388;-76
2023/11/04 09:12:30;;;;;;;;;;;9.30;99.90;;;8.44;100.00;94913.63;4982040;28;1577;-75
2023/11/04 09:14:56;;;;;;;;;;;9.10;99.90;;;8.59;100.00;94920.16;4980590;28;1422;-75
2023/11/04 09:17:24;;;;;;;;;;;9.20;99.90;;;8.55;100.00;94917.94;4983778;28;1605;-75
2023/11/04 09:19:51;;;;;;;;;;;9.20;99.90;;;8.66;100.00;94901.59;4979155;28;2017;-74
2023/11/04 09:22:18;;;;;;;;;;;9.30;99.90;;;8.57;100.00;94896.19;4984131;28;1407;-75
2023/11/04 09:24:45;;;;;;;;;;;9.30;99.90;;;8.58;100.00;94887.50;4998250;28;1367;-75
2023/11/04 09:27:12;;;;;;;;;;;9.10;99.90;;;8.44;100.00;94879.16;4986342;28;1586;-73
2023/11/04 09:29:39;;;;;;;;;;;9.10;99.90;;;8.22;100.00;94852.38;4980990;28;1471;-74
2023/11/04 09:32:06;;;;;;;;;;;8.90;99.90;;;8.27;100.00;94875.28;4984661;28;1665;-75
2023/11/04 09:34:33;;;;;;;;;;;9.00;99.90;;;8.37;100.00;94869.28;4985659;28;1379;-74
2023/11/04 09:37:01;;;;;;;;;;;9.00;99.90;;;8.32;100.00;94868.78;4999330;28;1556;-74
2023/11/04 09:39:28;;;;;;;;;;;8.90;99.90;;;8.34;100.00;94866.91;4997442;28;1975;-75
2023/11/04 09:41:56;;;;;;;;;;;9.00;99.90;;;8.20;100.00;94861.19;4981857;28;1364;-75
2023/11/04 09:44:24;;;;;;;;;;;8.90;99.90;;;8.18;100.00;94856.94;4984221;28;1392;-75
2023/11/04 09:46:51;;;;;;;;;;;9.00;99.90;;;8.41;100.00;94853.56;4985199;28;1616;-75
2023/11/04 09:49:18;;;;;;;;;;;9.00;99.90;;;8.28;100.00;94849.31;4968198;28;1392;-75
2023/11/04 09:51:46;;;;;;;;;;;8.90;99.90;;;8.36;100.00;94849.53;4982913;28;1458;-75
2023/11/04 09:54:13;;;;;;;;;;;9.00;99.90;;;8.49;100.00;94846.03;4968679;28;1443;-75
2023/11/04 09:56:40;;;;;;;;;;;9.10;99.90;;;8.55;100.00;94846.38;4969860;28;1575;-75
2023/11/04 09:59:07;;;;;;;;;;;9.10;99.90;;;8.54;100.00;94844.72;4985624;28;1951;-75
2023/11/04 10:01:34;;;;;;;;;;;9.10;99.90;;;8.70;100.00;94844.34;4990402;28;1763;-74
2023/11/04 10:04:02;;;;;;;;;;;9.20;99.90;;;8.84;100.00;94843.25;4986657;28;2181;-74
2023/11/04 10:06:29;;;;;;;;;;;9.20;99.90;;;8.72;100.00;94833.91;4988511;28;1456;-75
2023/11/04 10:08:56;;;;;;;;;;;9.20;99.90;;;8.64;100.00;94818.97;4988218;28;1371;-74
2023/11/04 10:11:23;;;;;;;;;;;9.20;99.90;;;8.38;100.00;94813.25;4988897;28;1427;-75
2023/11/04 10:13:50;;;;;;;;;;;9.10;99.90;;;8.48;100.00;94810.78;4985133;28;1393;-75
2023/11/04 10:16:18;;;;;;;;;;;9.10;99.90;;;8.39;100.00;94804.53;4984432;28;1252;-75
2023/11/04 10:18:48;;;;;;;;;;;9.10;99.90;;;8.20;100.00;94791.41;4972886;28;1972;-73
2023/11/04 10:21:19;;;;;;;;;;;8.90;99.90;;;8.16;100.00;94790.81;4988463;28;1864;-75
2023/11/04 10:23:46;;;;;;;;;;;8.90;99.90;;;8.29;100.00;94795.88;4984856;28;1405;-75
2023/11/04 10:26:15;;;;;;;;;;;9.00;99.90;;;8.03;100.00;94780.63;4985009;28;1702;-75
2023/11/04 10:28:42;;;;;;;;;;;8.80;99.90;;;8.10;100.00;94784.38;4983832;28;1673;-75
2023/11/04 10:31:11;;;;;;;;;;;8.90;99.90;;;8.28;100.00;94766.63;4970692;28;1472;-75
2023/11/04 10:33:39;;;;;;;;;;;8.90;99.90;;;8.24;100.00;94748.91;4971174;28;1397;-75
2023/11/04 10:36:08;;;;;;;;;;;8.90;99.90;;;8.22;100.00;94749.00;4982617;28;1461;-74
2023/11/04 10:38:36;;;;;;;;;;;8.90;99.90;;;8.21;100.00;94736.19;4989636;28;1482;-74
2023/11/04 10:41:06;;;;;;;;;;;8.90;99.90;;;8.14;100.00;94739.28;4987133;28;1903;-74
2023/11/04 10:43:53;;;;;;;;;;;8.90;99.90;;;8.26;100.00;94732.31;4985242;28;1528;-75
2023/11/04 10:46:30;;;;;;;;;;;8.90;99.90;;;8.27;100.00;94730.56;4970802;28;1557;-75
2023/11/04 10:49:07;;;;;;;;;;;8.90;99.90;;;8.15;100.00;94728.00;5001899;28;1381;-75
2023/11/04 10:51:41;;;;;;;;;;;8.80;99.90;;;8.07;100.00;94722.59;4986920;28;1457;-73
2023/11/04 10:54:16;;;;;;;;;;;8.80;99.90;;;8.21;100.00;94713.78;4985480;28;1460;-75
2023/11/04 10:56:48;;;;;;;;;;;8.90;99.90;;;8.25;100.00;94709.19;4988078;28;1436;-77
2023/11/04 10:59:24;;;;;;;;;;;8.90;99.90;;;8.31;100.00;94714.69;4987518;28;1918;-74
2023/11/04 11:01:54;;;;;;;;;;;8.90;99.90;;;8.25;100.00;94698.84;4986041;28;1618;-74
2023/11/04 11:04:22;;;;;;;;;;;8.90;99.90;;;8.44;100.00;94687.88;4986480;28;1379;-75
2023/11/04 11:06:50;;;;;;;;;;;8.90;99.90;;;8.65;100.00;94680.19;4985262;28;1403;-74
2023/11/04 11:09:18;;;;;;;;;;;9.00;99.90;;;8.72;100.00;94686.50;4986897;28;1606;-76
2023/11/04 11:11:56;;;;;;;;;;;9.10;99.90;;;8.68;100.00;94678.16;4983651;28;1419;-74
2023/11/04 11:14:24;;;;;;;;;;;9.20;99.90;;;8.62;100.00;94665.75;4988914;28;1384;-75
2023/11/04 11:17:01;;;;;;;;;;;9.10;99.90;;;8.56;100.00;94655.88;4986133;28;1471;-75
2023/11/04 11:19:28;;;;;;;;;;;9.10;99.90;;;8.47;100.00;94641.94;4987499;28;1926;-75
2023/11/04 11:21:55;;;;;;;;;;;9.10;99.90;;;8.49;100.00;94634.06;4981543;28;2059;-76
2023/11/04 11:24:22;;;;;;;;;;;9.10;99.90;;;8.56;100.00;94633.44;4971816;28;1657;-74
2023/11/04 11:26:53;;;;;;;;;;;9.10;99.90;;;8.54;100.00;94609.47;4967066;28;1371;-75
2023/11/04 11:29:26;;;;;;;;;;;9.10;99.90;;;8.57;100.00;94608.41;4985923;28;1552;-75
2023/11/04 11:32:08;;;;;;;;;;;9.10;99.90;;;8.36;100.00;94583.31;4988333;28;1599;-75
2023/11/04 11:34:35;;;;;;;;;;;9.10;99.90;;;8.16;100.00;94609.97;4983270;28;1600;-76
2023/11/04 11:37:03;;;;;;;;;;;8.90;99.90;;;8.10;100.00;94616.47;4983272;28;1855;-76